West Kilbride, United Kingdom
Current Conditions -  °F | °C
As of 9:50 AM on Tuesday 21 Oct 2014 (Local Time) from EGPK Reporting Station
Rain Showers Rain Showers  
Wind Chill: 39°   Ceiling: Unl
Heat Index: 48°   Visibility: 6mi
Dew Point: 43°   Wind: 32mph
Humidity: 82%   Direction: 300°WNW
Pressure: 29.41"   Gusts: 47mph
Location:  55.68°N, 4.85°W
Report Text: EGPK 210850Z 30028G41KT 9999 -SHRA FEW015CB SCT030 09/06 Q0996
Loading
Personal Weather Stations






























Interactive Weather Map
Tropical Storm Tracking
New forecast layout! Learn more

10-Day Weather Forecast

Advertisements
Track Severe Weather on mobile